createdAt,value
2018-07-22T00:00:16.499Z,1012.27
2018-07-22T00:00:42.077Z,1012.28
2018-07-22T00:01:07.665Z,1012.24
2018-07-22T00:01:33.245Z,1012.25
2018-07-22T00:01:58.831Z,1012.25
2018-07-22T00:02:24.421Z,1012.28
2018-07-22T00:02:50.011Z,1012.26
2018-07-22T00:03:15.602Z,1012.24
2018-07-22T00:03:41.189Z,1012.27
2018-07-22T00:04:06.781Z,1012.29
2018-07-22T00:04:32.354Z,1012.28
2018-07-22T00:04:57.954Z,1012.32
2018-07-22T00:05:23.533Z,1012.26
2018-07-22T00:05:49.109Z,1012.27
2018-07-22T00:06:14.685Z,1012.31
2018-07-22T00:06:40.254Z,1012.3
2018-07-22T00:07:05.832Z,1012.29
2018-07-22T00:07:31.409Z,1012.26
2018-07-22T00:07:56.988Z,1012.32
2018-07-22T00:08:22.560Z,1012.29
2018-07-22T00:08:48.129Z,1012.26
2018-07-22T00:09:13.718Z,1012.28
2018-07-22T00:09:39.322Z,1012.28
2018-07-22T00:10:04.886Z,1012.31
2018-07-22T00:10:30.463Z,1012.31
2018-07-22T00:10:56.048Z,1012.27
2018-07-22T00:11:21.626Z,1012.3
2018-07-22T00:11:47.207Z,1012.28
2018-07-22T00:12:12.788Z,1012.31
2018-07-22T00:12:38.373Z,1012.26
2018-07-22T00:13:03.961Z,1012.27
2018-07-22T00:13:29.527Z,1012.24
2018-07-22T00:13:55.128Z,1012.29
2018-07-22T00:14:20.691Z,1012.27
2018-07-22T00:14:46.277Z,1012.28
2018-07-22T00:15:11.841Z,1012.27
2018-07-22T00:15:37.416Z,1012.26
2018-07-22T00:16:02.997Z,1012.24
2018-07-22T00:16:28.572Z,1012.26
2018-07-22T00:16:54.159Z,1012.27
2018-07-22T00:17:19.731Z,1012.28
2018-07-22T00:17:45.329Z,1012.26
2018-07-22T00:18:10.907Z,1012.3
2018-07-22T00:18:36.475Z,1012.3
2018-07-22T00:19:02.045Z,1012.26
2018-07-22T00:19:27.610Z,1012.27
2018-07-22T00:19:53.173Z,1012.26
2018-07-22T00:20:18.759Z,1012.3
2018-07-22T00:20:44.333Z,1012.31
2018-07-22T00:21:09.907Z,1012.29
2018-07-22T00:21:35.491Z,1012.31
2018-07-22T00:22:01.083Z,1012.29
2018-07-22T00:22:26.645Z,1012.3
2018-07-22T00:22:52.219Z,1012.3
2018-07-22T00:23:17.795Z,1012.31
2018-07-22T00:23:43.390Z,1012.29
2018-07-22T00:24:08.964Z,1012.29
2018-07-22T00:24:34.547Z,1012.32
2018-07-22T00:25:00.123Z,1012.29
2018-07-22T00:25:25.709Z,1012.35
2018-07-22T00:25:51.301Z,1012.33
2018-07-22T00:26:16.877Z,1012.32
2018-07-22T00:26:42.451Z,1012.3
2018-07-22T00:27:08.031Z,1012.34
2018-07-22T00:27:33.619Z,1012.35
2018-07-22T00:27:59.209Z,1012.32
2018-07-22T00:28:24.783Z,1012.34
2018-07-22T00:28:50.357Z,1012.34
2018-07-22T00:29:15.997Z,1012.34
2018-07-22T00:29:41.497Z,1012.32
2018-07-22T00:30:07.097Z,1012.32
2018-07-22T00:30:32.669Z,1012.3
2018-07-22T00:30:58.271Z,1012.36
2018-07-22T00:31:23.837Z,1012.32
2018-07-22T00:31:49.428Z,1012.32
2018-07-22T00:32:15.011Z,1012.32
2018-07-22T00:32:40.593Z,1012.34
2018-07-22T00:33:06.168Z,1012.29
2018-07-22T00:33:31.754Z,1012.28
2018-07-22T00:33:57.323Z,1012.32
2018-07-22T00:34:22.893Z,1012.3
2018-07-22T00:34:48.479Z,1012.34
2018-07-22T00:35:14.051Z,1012.3
2018-07-22T00:35:39.637Z,1012.28
2018-07-22T00:36:05.223Z,1012.29
2018-07-22T00:36:30.788Z,1012.28
2018-07-22T00:36:56.366Z,1012.25
2018-07-22T00:37:21.943Z,1012.3
2018-07-22T00:37:47.531Z,1012.28
2018-07-22T00:38:13.105Z,1012.26
2018-07-22T00:38:38.683Z,1012.24
2018-07-22T00:39:04.265Z,1012.2
2018-07-22T00:39:29.853Z,1012.25
2018-07-22T00:39:55.423Z,1012.21
2018-07-22T00:40:21.007Z,1012.28
2018-07-22T00:40:46.590Z,1012.25
2018-07-22T00:41:12.169Z,1012.24
2018-07-22T00:41:37.741Z,1012.24
2018-07-22T00:42:03.325Z,1012.25
2018-07-22T00:42:28.898Z,1012.25
2018-07-22T00:42:54.473Z,1012.21
2018-07-22T00:43:20.059Z,1012.2
2018-07-22T00:43:45.636Z,1012.19
2018-07-22T00:44:11.220Z,1012.2
2018-07-22T00:44:36.804Z,1012.18
2018-07-22T00:45:02.396Z,1012.17
2018-07-22T00:45:27.969Z,1012.19
2018-07-22T00:45:53.569Z,1012.16
2018-07-22T00:46:19.160Z,1012.17
2018-07-22T00:46:44.743Z,1012.18
2018-07-22T00:47:10.345Z,1012.16
2018-07-22T00:47:35.921Z,1012.16
2018-07-22T00:48:01.509Z,1012.16
2018-07-22T00:48:27.088Z,1012.16
2018-07-22T00:48:52.675Z,1012.13
2018-07-22T00:49:18.259Z,1012.15
2018-07-22T00:49:43.848Z,1012.13
2018-07-22T00:50:09.417Z,1012.15
2018-07-22T00:50:35.000Z,1012.16
2018-07-22T00:51:00.579Z,1012.19
2018-07-22T00:51:26.154Z,1012.11
2018-07-22T00:51:51.738Z,1012.16
2018-07-22T00:52:17.315Z,1012.14
2018-07-22T00:52:42.879Z,1012.15
2018-07-22T00:53:08.454Z,1012.15
2018-07-22T00:53:34.039Z,1012.19
2018-07-22T00:53:59.599Z,1012.18
2018-07-22T00:54:25.186Z,1012.2
2018-07-22T00:54:50.756Z,1012.2
2018-07-22T00:55:16.350Z,1012.19
2018-07-22T00:55:41.933Z,1012.2
2018-07-22T00:56:07.511Z,1012.23
2018-07-22T00:56:33.086Z,1012.2
2018-07-22T00:56:58.673Z,1012.2
2018-07-22T00:57:24.249Z,1012.26
2018-07-22T00:57:49.839Z,1012.23
2018-07-22T00:58:15.408Z,1012.2
2018-07-22T00:58:40.986Z,1012.19
2018-07-22T00:59:06.561Z,1012.21
2018-07-22T00:59:32.126Z,1012.2
2018-07-22T00:59:57.816Z,1012.22
2018-07-22T01:00:23.271Z,1012.2
2018-07-22T01:00:48.851Z,1012.19
2018-07-22T01:01:14.418Z,1012.17
2018-07-22T01:01:39.986Z,1012.16
2018-07-22T01:02:05.551Z,1012.2
2018-07-22T01:02:31.122Z,1012.22
2018-07-22T01:02:56.711Z,1012.2
2018-07-22T01:03:22.276Z,1012.2
2018-07-22T01:03:47.861Z,1012.19
2018-07-22T01:04:13.430Z,1012.22
2018-07-22T01:04:39.023Z,1012.21
2018-07-22T01:05:04.582Z,1012.19
2018-07-22T01:05:30.165Z,1012.22
2018-07-22T01:05:55.746Z,1012.21
2018-07-22T01:06:21.328Z,1012.21
2018-07-22T01:06:46.903Z,1012.18
2018-07-22T01:07:12.481Z,1012.2
2018-07-22T01:07:38.069Z,1012.19
2018-07-22T01:08:03.636Z,1012.24
2018-07-22T01:08:29.219Z,1012.19
2018-07-22T01:08:54.790Z,1012.19
2018-07-22T01:09:20.369Z,1012.19
2018-07-22T01:09:45.952Z,1012.22
2018-07-22T01:10:11.518Z,1012.22
2018-07-22T01:10:37.085Z,1012.18
2018-07-22T01:11:02.662Z,1012.23
2018-07-22T01:11:28.252Z,1012.24
2018-07-22T01:11:53.825Z,1012.24
2018-07-22T01:12:19.411Z,1012.24
2018-07-22T01:12:44.991Z,1012.27
2018-07-22T01:13:10.568Z,1012.25
2018-07-22T01:13:36.157Z,1012.21
2018-07-22T01:14:01.735Z,1012.24
2018-07-22T01:14:27.308Z,1012.24
2018-07-22T01:14:52.899Z,1012.23
2018-07-22T01:15:18.468Z,1012.24
2018-07-22T01:15:44.037Z,1012.21
2018-07-22T01:16:09.621Z,1012.28
2018-07-22T01:16:35.195Z,1012.25
2018-07-22T01:17:00.777Z,1012.22
2018-07-22T01:17:26.363Z,1012.24
2018-07-22T01:17:51.941Z,1012.23
2018-07-22T01:18:17.521Z,1012.21
2018-07-22T01:18:43.085Z,1012.23
2018-07-22T01:19:08.652Z,1012.24
2018-07-22T01:19:34.227Z,1012.22
2018-07-22T01:19:59.801Z,1012.22
2018-07-22T01:20:25.397Z,1012.27
2018-07-22T01:20:50.960Z,1012.26
2018-07-22T01:21:16.544Z,1012.21
2018-07-22T01:21:42.121Z,1012.21
2018-07-22T01:22:07.693Z,1012.24
2018-07-22T01:22:33.264Z,1012.22
2018-07-22T01:22:58.833Z,1012.22
2018-07-22T01:23:24.417Z,1012.23
2018-07-22T01:23:49.991Z,1012.19
2018-07-22T01:24:15.555Z,1012.22
2018-07-22T01:24:41.144Z,1012.23
2018-07-22T01:25:06.722Z,1012.23
2018-07-22T01:25:32.296Z,1012.21
2018-07-22T01:25:57.867Z,1012.19
2018-07-22T01:26:23.435Z,1012.23
2018-07-22T01:26:49.008Z,1012.2
2018-07-22T01:27:14.578Z,1012.22
2018-07-22T01:27:40.155Z,1012.21
2018-07-22T01:28:05.730Z,1012.21
2018-07-22T01:28:31.316Z,1012.18
2018-07-22T01:28:56.889Z,1012.21
2018-07-22T01:29:22.460Z,1012.19
2018-07-22T01:29:48.036Z,1012.19
2018-07-22T01:30:13.622Z,1012.21
2018-07-22T01:30:39.198Z,1012.2
2018-07-22T01:31:04.782Z,1012.2
2018-07-22T01:31:30.356Z,1012.17
2018-07-22T01:31:55.936Z,1012.16
2018-07-22T01:32:21.517Z,1012.16
2018-07-22T01:32:47.091Z,1012.14
2018-07-22T01:33:12.683Z,1012.18
2018-07-22T01:33:38.240Z,1012.15
2018-07-22T01:34:03.819Z,1012.17
2018-07-22T01:34:29.392Z,1012.19
2018-07-22T01:34:54.974Z,1012.16
2018-07-22T01:35:20.556Z,1012.14
2018-07-22T01:35:46.137Z,1012.14
2018-07-22T01:36:11.710Z,1012.16
2018-07-22T01:36:37.277Z,1012.17
2018-07-22T01:37:02.853Z,1012.17
2018-07-22T01:37:28.426Z,1012.16
2018-07-22T01:37:54.006Z,1012.17
2018-07-22T01:38:19.596Z,1012.17
2018-07-22T01:38:45.176Z,1012.18
2018-07-22T01:39:10.756Z,1012.2
2018-07-22T01:39:36.336Z,1012.19
2018-07-22T01:40:01.925Z,1012.15
2018-07-22T01:40:27.495Z,1012.2
2018-07-22T01:40:53.076Z,1012.21
2018-07-22T01:41:18.642Z,1012.16
2018-07-22T01:41:44.222Z,1012.16
2018-07-22T01:42:09.805Z,1012.18
2018-07-22T01:42:35.376Z,1012.18
2018-07-22T01:43:00.944Z,1012.2
2018-07-22T01:43:26.533Z,1012.18
2018-07-22T01:43:52.102Z,1012.19
2018-07-22T01:44:17.668Z,1012.2
2018-07-22T01:44:43.237Z,1012.17
2018-07-22T01:45:08.814Z,1012.18
2018-07-22T01:45:34.388Z,1012.17
2018-07-22T01:45:59.968Z,1012.15
2018-07-22T01:46:25.538Z,1012.19
2018-07-22T01:46:51.133Z,1012.12
2018-07-22T01:47:16.708Z,1012.18
2018-07-22T01:47:42.288Z,1012.14
2018-07-22T01:48:07.858Z,1012.13
2018-07-22T01:48:33.428Z,1012.13
2018-07-22T01:48:59.009Z,1012.12
2018-07-22T01:49:24.587Z,1012.12
2018-07-22T01:49:50.149Z,1012.14
2018-07-22T01:50:15.721Z,1012.15
2018-07-22T01:50:41.302Z,1012.15
2018-07-22T01:51:06.882Z,1012.14
2018-07-22T01:51:32.454Z,1012.15
2018-07-22T01:51:58.017Z,1012.14
2018-07-22T01:52:23.591Z,1012.14
2018-07-22T01:52:49.160Z,1012.17
2018-07-22T01:53:14.736Z,1012.15
2018-07-22T01:53:40.310Z,1012.18
2018-07-22T01:54:05.884Z,1012.18
2018-07-22T01:54:31.460Z,1012.12
2018-07-22T01:54:57.029Z,1012.19
2018-07-22T01:55:22.614Z,1012.15
2018-07-22T01:55:48.182Z,1012.17
2018-07-22T01:56:13.755Z,1012.17
2018-07-22T01:56:39.342Z,1012.16
2018-07-22T01:57:04.922Z,1012.15
2018-07-22T01:57:30.494Z,1012.19
2018-07-22T01:57:56.068Z,1012.15
2018-07-22T01:58:21.633Z,1012.16
2018-07-22T01:58:47.211Z,1012.16
2018-07-22T01:59:12.776Z,1012.15
2018-07-22T01:59:38.367Z,1012.17
2018-07-22T02:00:03.934Z,1012.16
2018-07-22T02:00:29.505Z,1012.17
2018-07-22T02:00:55.086Z,1012.15
2018-07-22T02:01:20.672Z,1012.14
2018-07-22T02:01:46.255Z,1012.17
2018-07-22T02:02:11.827Z,1012.15
2018-07-22T02:02:37.385Z,1012.17
2018-07-22T02:03:02.957Z,1012.11
2018-07-22T02:03:28.526Z,1012.15
2018-07-22T02:03:54.097Z,1012.18
2018-07-22T02:04:19.689Z,1012.15
2018-07-22T02:04:45.270Z,1012.14
2018-07-22T02:05:10.839Z,1012.16
2018-07-22T02:05:36.418Z,1012.18
2018-07-22T02:06:02.003Z,1012.15
2018-07-22T02:06:27.571Z,1012.19
2018-07-22T02:06:53.163Z,1012.16
2018-07-22T02:07:18.750Z,1012.15
2018-07-22T02:07:44.333Z,1012.18
2018-07-22T02:08:09.914Z,1012.16
2018-07-22T02:08:35.480Z,1012.17
2018-07-22T02:09:01.070Z,1012.19
2018-07-22T02:09:26.647Z,1012.2
2018-07-22T02:09:52.224Z,1012.14
2018-07-22T02:10:17.801Z,1012.17
2018-07-22T02:10:43.376Z,1012.17
2018-07-22T02:11:08.958Z,1012.18
2018-07-22T02:11:34.540Z,1012.18
2018-07-22T02:12:00.114Z,1012.18
2018-07-22T02:12:25.691Z,1012.17
2018-07-22T02:12:51.270Z,1012.15
2018-07-22T02:13:16.838Z,1012.15
2018-07-22T02:13:42.419Z,1012.14
2018-07-22T02:14:07.994Z,1012.17
2018-07-22T02:14:33.570Z,1012.13
2018-07-22T02:14:59.155Z,1012.17
2018-07-22T02:15:24.736Z,1012.14
2018-07-22T02:15:50.314Z,1012.17
2018-07-22T02:16:15.899Z,1012.18
2018-07-22T02:16:41.462Z,1012.13
2018-07-22T02:17:07.055Z,1012.16
2018-07-22T02:17:32.612Z,1012.15
2018-07-22T02:17:58.175Z,1012.18
2018-07-22T02:18:23.737Z,1012.2
2018-07-22T02:18:49.353Z,1012.2
2018-07-22T02:19:14.926Z,1012.16
2018-07-22T02:19:40.498Z,1012.14
2018-07-22T02:20:06.080Z,1012.14
2018-07-22T02:20:31.658Z,1012.17
2018-07-22T02:20:57.344Z,1012.14
2018-07-22T02:21:22.793Z,1012.21
2018-07-22T02:21:48.364Z,1012.17
2018-07-22T02:22:13.944Z,1012.14
2018-07-22T02:22:39.510Z,1012.15
2018-07-22T02:23:05.091Z,1012.13
2018-07-22T02:23:30.668Z,1012.13
2018-07-22T02:23:56.236Z,1012.15
2018-07-22T02:24:21.818Z,1012.12
2018-07-22T02:24:47.386Z,1012.13
2018-07-22T02:25:12.954Z,1012.13
2018-07-22T02:25:38.527Z,1012.13
2018-07-22T02:26:04.112Z,1012.18
2018-07-22T02:26:29.696Z,1012.16
2018-07-22T02:26:56.936Z,1012.16
2018-07-22T02:27:22.554Z,1012.15
2018-07-22T02:27:48.135Z,1012.14
2018-07-22T02:28:13.707Z,1012.17
2018-07-22T02:28:39.266Z,1012.13
2018-07-22T02:29:04.845Z,1012.14
2018-07-22T02:29:30.434Z,1012.16
2018-07-22T02:29:56.016Z,1012.18
2018-07-22T02:30:21.580Z,1012.16
2018-07-22T02:30:47.170Z,1012.15
2018-07-22T02:31:12.755Z,1012.13
2018-07-22T02:31:38.324Z,1012.12
2018-07-22T02:32:03.916Z,1012.13
2018-07-22T02:32:29.507Z,1012.12
2018-07-22T02:32:55.078Z,1012.15
2018-07-22T02:33:20.658Z,1012.11
2018-07-22T02:33:46.235Z,1012.15
2018-07-22T02:34:11.816Z,1012.12
2018-07-22T02:34:37.382Z,1012.12
2018-07-22T02:35:02.960Z,1012.13
2018-07-22T02:35:28.538Z,1012.12
2018-07-22T02:35:54.110Z,1012.11
2018-07-22T02:36:19.686Z,1012.15
2018-07-22T02:36:45.270Z,1012.14
2018-07-22T02:37:10.847Z,1012.12
2018-07-22T02:37:36.415Z,1012.11
2018-07-22T02:38:02.000Z,1012.12
2018-07-22T02:38:27.562Z,1012.11
2018-07-22T02:38:53.147Z,1012.12
2018-07-22T02:39:18.724Z,1012.13
2018-07-22T02:39:44.284Z,1012.14
2018-07-22T02:40:09.852Z,1012.12
2018-07-22T02:40:35.416Z,1012.15
2018-07-22T02:41:01.002Z,1012.13
2018-07-22T02:41:26.576Z,1012.11
2018-07-22T02:41:52.153Z,1012.16
2018-07-22T02:42:17.725Z,1012.13
2018-07-22T02:42:43.295Z,1012.15
2018-07-22T02:43:08.876Z,1012.15
2018-07-22T02:43:34.462Z,1012.17
2018-07-22T02:44:00.019Z,1012.15
2018-07-22T02:44:25.594Z,1012.19
2018-07-22T02:44:51.178Z,1012.17
2018-07-22T02:45:16.745Z,1012.14
2018-07-22T02:45:42.352Z,1012.21
2018-07-22T02:46:07.934Z,1012.18
2018-07-22T02:46:33.498Z,1012.17
2018-07-22T02:46:59.080Z,1012.17
2018-07-22T02:47:24.654Z,1012.14
2018-07-22T02:47:50.238Z,1012.16
2018-07-22T02:48:15.811Z,1012.15
2018-07-22T02:48:41.387Z,1012.18
2018-07-22T02:49:06.961Z,1012.16
2018-07-22T02:49:32.528Z,1012.14
2018-07-22T02:49:58.109Z,1012.14
2018-07-22T02:50:23.681Z,1012.16
2018-07-22T02:50:49.253Z,1012.16
2018-07-22T02:51:14.823Z,1012.15
2018-07-22T02:51:40.405Z,1012.14
2018-07-22T02:52:05.972Z,1012.14
2018-07-22T02:52:31.544Z,1012.15
2018-07-22T02:52:57.120Z,1012.18
2018-07-22T02:53:22.688Z,1012.15
2018-07-22T02:53:48.269Z,1012.17
2018-07-22T02:54:13.844Z,1012.19
2018-07-22T02:54:39.427Z,1012.16
2018-07-22T02:55:04.999Z,1012.18
2018-07-22T02:55:30.578Z,1012.18
2018-07-22T02:55:56.158Z,1012.19
2018-07-22T02:56:21.718Z,1012.14
2018-07-22T02:56:47.290Z,1012.16
2018-07-22T02:57:12.867Z,1012.18
2018-07-22T02:57:38.440Z,1012.16
2018-07-22T02:58:04.011Z,1012.15
2018-07-22T02:58:29.586Z,1012.17
2018-07-22T02:58:55.170Z,1012.16
2018-07-22T02:59:20.738Z,1012.16
2018-07-22T02:59:46.312Z,1012.15
2018-07-22T03:00:11.880Z,1012.2
2018-07-22T03:00:37.471Z,1012.19
2018-07-22T03:01:03.044Z,1012.19
2018-07-22T03:01:28.616Z,1012.15
2018-07-22T03:01:54.193Z,1012.15
2018-07-22T03:02:19.757Z,1012.16
2018-07-22T03:02:45.330Z,1012.16
2018-07-22T03:03:10.893Z,1012.19
2018-07-22T03:03:36.472Z,1012.18
2018-07-22T03:04:02.051Z,1012.16
2018-07-22T03:04:27.632Z,1012.16
2018-07-22T03:04:53.204Z,1012.18
2018-07-22T03:05:18.782Z,1012.16
2018-07-22T03:05:44.351Z,1012.23
2018-07-22T03:06:09.927Z,1012.18
2018-07-22T03:06:35.498Z,1012.18
2018-07-22T03:07:01.078Z,1012.18
2018-07-22T03:07:26.648Z,1012.2
2018-07-22T03:07:52.222Z,1012.16
2018-07-22T03:08:17.804Z,1012.16
2018-07-22T03:08:43.384Z,1012.17
2018-07-22T03:09:08.956Z,1012.17
2018-07-22T03:09:34.521Z,1012.21
2018-07-22T03:10:00.096Z,1012.21
2018-07-22T03:10:25.676Z,1012.21
2018-07-22T03:10:51.261Z,1012.21
2018-07-22T03:11:16.835Z,1012.23
2018-07-22T03:11:42.411Z,1012.24
2018-07-22T03:12:07.992Z,1012.26
2018-07-22T03:12:33.579Z,1012.24
2018-07-22T03:12:59.146Z,1012.28
2018-07-22T03:13:24.720Z,1012.28
2018-07-22T03:13:50.306Z,1012.3
2018-07-22T03:14:15.881Z,1012.28
2018-07-22T03:14:41.460Z,1012.32
2018-07-22T03:15:07.026Z,1012.33
2018-07-22T03:15:32.607Z,1012.34
2018-07-22T03:15:58.182Z,1012.39
2018-07-22T03:16:23.770Z,1012.37
2018-07-22T03:16:49.350Z,1012.4
2018-07-22T03:17:14.923Z,1012.46
2018-07-22T03:17:40.508Z,1012.41
2018-07-22T03:18:06.076Z,1012.44
2018-07-22T03:18:31.652Z,1012.41
2018-07-22T03:18:57.223Z,1012.45
2018-07-22T03:19:22.804Z,1012.45
2018-07-22T03:19:48.375Z,1012.44
2018-07-22T03:20:13.952Z,1012.44
2018-07-22T03:20:39.534Z,1012.44
2018-07-22T03:21:05.106Z,1012.47
2018-07-22T03:21:30.668Z,1012.48
2018-07-22T03:21:56.248Z,1012.42
2018-07-22T03:22:21.816Z,1012.42
2018-07-22T03:22:47.404Z,1012.4
2018-07-22T03:23:12.977Z,1012.45
2018-07-22T03:23:38.555Z,1012.39
2018-07-22T03:24:04.120Z,1012.44
2018-07-22T03:24:29.696Z,1012.43
2018-07-22T03:24:55.256Z,1012.42
2018-07-22T03:25:20.828Z,1012.42
2018-07-22T03:25:46.414Z,1012.45
2018-07-22T03:26:11.984Z,1012.43
2018-07-22T03:26:37.567Z,1012.41
2018-07-22T03:27:03.138Z,1012.41
2018-07-22T03:27:28.694Z,1012.41
2018-07-22T03:27:54.278Z,1012.42
2018-07-22T03:28:19.838Z,1012.45
2018-07-22T03:28:45.410Z,1012.46
2018-07-22T03:29:10.990Z,1012.42
2018-07-22T03:29:36.576Z,1012.46
2018-07-22T03:30:02.143Z,1012.4
2018-07-22T03:30:27.716Z,1012.4
2018-07-22T03:30:53.294Z,1012.42
2018-07-22T03:31:18.874Z,1012.42
2018-07-22T03:31:44.453Z,1012.44
2018-07-22T03:32:10.014Z,1012.39
2018-07-22T03:32:35.599Z,1012.42
2018-07-22T03:33:01.177Z,1012.45
2018-07-22T03:33:26.739Z,1012.42
2018-07-22T03:33:52.318Z,1012.45
2018-07-22T03:34:17.882Z,1012.46
2018-07-22T03:34:43.459Z,1012.49
2018-07-22T03:35:09.023Z,1012.48
2018-07-22T03:35:34.592Z,1012.48
2018-07-22T03:36:00.169Z,1012.52
2018-07-22T03:36:25.738Z,1012.53
2018-07-22T03:36:51.320Z,1012.5
2018-07-22T03:37:16.897Z,1012.51
2018-07-22T03:37:42.462Z,1012.5
2018-07-22T03:38:08.017Z,1012.5
2018-07-22T03:38:33.596Z,1012.52
2018-07-22T03:38:59.172Z,1012.52
2018-07-22T03:39:24.749Z,1012.5
2018-07-22T03:39:50.322Z,1012.48
2018-07-22T03:40:15.910Z,1012.52
2018-07-22T03:40:41.481Z,1012.55
2018-07-22T03:41:07.064Z,1012.56
2018-07-22T03:41:32.627Z,1012.54
2018-07-22T03:41:58.201Z,1012.58
2018-07-22T03:42:23.777Z,1012.56
2018-07-22T03:42:49.361Z,1012.53
2018-07-22T03:43:14.939Z,1012.55
2018-07-22T03:43:40.508Z,1012.54
2018-07-22T03:44:06.092Z,1012.51
2018-07-22T03:44:31.666Z,1012.52
2018-07-22T03:44:57.246Z,1012.53
2018-07-22T03:45:22.822Z,1012.52
2018-07-22T03:45:48.392Z,1012.5
2018-07-22T03:46:13.976Z,1012.48
2018-07-22T03:46:39.542Z,1012.51
2018-07-22T03:47:05.116Z,1012.52
2018-07-22T03:47:30.700Z,1012.51
2018-07-22T03:47:56.267Z,1012.54
2018-07-22T03:48:21.829Z,1012.55
2018-07-22T03:48:47.404Z,1012.57
2018-07-22T03:49:12.997Z,1012.55
2018-07-22T03:49:38.575Z,1012.59
2018-07-22T03:50:04.148Z,1012.56
2018-07-22T03:50:29.730Z,1012.6
2018-07-22T03:50:55.307Z,1012.57
2018-07-22T03:51:20.877Z,1012.53
2018-07-22T03:51:46.466Z,1012.53
2018-07-22T03:52:12.033Z,1012.53
2018-07-22T03:52:37.608Z,1012.51
2018-07-22T03:53:03.175Z,1012.53
2018-07-22T03:53:28.746Z,1012.49
2018-07-22T03:53:54.325Z,1012.53
2018-07-22T03:54:19.890Z,1012.53
2018-07-22T03:54:45.462Z,1012.51
2018-07-22T03:55:11.053Z,1012.52
2018-07-22T03:55:36.649Z,1012.56
2018-07-22T03:56:02.229Z,1012.54
2018-07-22T03:56:27.798Z,1012.57
2018-07-22T03:56:53.368Z,1012.58
2018-07-22T03:57:18.946Z,1012.56
2018-07-22T03:57:44.524Z,1012.54
2018-07-22T03:58:10.088Z,1012.55
2018-07-22T03:58:35.666Z,1012.52
2018-07-22T03:59:01.232Z,1012.56
2018-07-22T03:59:26.819Z,1012.54
2018-07-22T03:59:52.391Z,1012.53
2018-07-22T04:00:17.966Z,1012.55
2018-07-22T04:00:43.552Z,1012.53
2018-07-22T04:01:09.149Z,1012.53
2018-07-22T04:01:34.707Z,1012.53
2018-07-22T04:02:00.293Z,1012.53
2018-07-22T04:02:25.878Z,1012.56
2018-07-22T04:02:51.446Z,1012.53
2018-07-22T04:03:17.034Z,1012.52
2018-07-22T04:03:42.610Z,1012.56
2018-07-22T04:04:08.175Z,1012.54
2018-07-22T04:04:33.757Z,1012.52
2018-07-22T04:04:59.334Z,1012.55
2018-07-22T04:05:24.915Z,1012.54
2018-07-22T04:05:50.489Z,1012.53
2018-07-22T04:06:16.065Z,1012.54
2018-07-22T04:06:41.638Z,1012.56
2018-07-22T04:07:07.301Z,1012.56
2018-07-22T04:07:32.783Z,1012.52
2018-07-22T04:07:58.357Z,1012.55
2018-07-22T04:08:23.932Z,1012.55
2018-07-22T04:08:49.500Z,1012.53
2018-07-22T04:09:15.081Z,1012.52
2018-07-22T04:09:40.664Z,1012.53
2018-07-22T04:10:06.241Z,1012.53
2018-07-22T04:10:31.807Z,1012.52
2018-07-22T04:10:57.379Z,1012.51
2018-07-22T04:11:22.942Z,1012.49
2018-07-22T04:11:48.522Z,1012.51
2018-07-22T04:12:14.090Z,1012.47
2018-07-22T04:12:39.667Z,1012.51
2018-07-22T04:13:05.250Z,1012.51
2018-07-22T04:13:30.824Z,1012.52
2018-07-22T04:13:56.398Z,1012.5
2018-07-22T04:14:21.962Z,1012.48
2018-07-22T04:14:47.544Z,1012.49
2018-07-22T04:15:13.123Z,1012.5
2018-07-22T04:15:38.690Z,1012.47
2018-07-22T04:16:04.271Z,1012.47
2018-07-22T04:16:29.846Z,1012.44
2018-07-22T04:16:55.430Z,1012.41
2018-07-22T04:17:21.019Z,1012.42
2018-07-22T04:17:46.583Z,1012.44
2018-07-22T04:18:12.163Z,1012.43
2018-07-22T04:18:37.733Z,1012.38
2018-07-22T04:19:03.309Z,1012.41
2018-07-22T04:19:28.875Z,1012.38
2018-07-22T04:19:54.459Z,1012.35
2018-07-22T04:20:20.032Z,1012.36
2018-07-22T04:20:45.629Z,1012.4
2018-07-22T04:21:11.192Z,1012.42
2018-07-22T04:21:36.767Z,1012.37
2018-07-22T04:22:02.329Z,1012.38
2018-07-22T04:22:27.896Z,1012.37
2018-07-22T04:22:53.466Z,1012.39
2018-07-22T04:23:19.051Z,1012.39
2018-07-22T04:23:44.619Z,1012.4
2018-07-22T04:24:10.197Z,1012.37
2018-07-22T04:24:35.780Z,1012.4
2018-07-22T04:25:01.347Z,1012.36
2018-07-22T04:25:26.922Z,1012.38
2018-07-22T04:25:52.511Z,1012.37
2018-07-22T04:26:18.078Z,1012.36
2018-07-22T04:26:43.653Z,1012.41
2018-07-22T04:27:09.259Z,1012.37
2018-07-22T04:27:34.827Z,1012.4
2018-07-22T04:28:00.392Z,1012.42
2018-07-22T04:28:25.972Z,1012.41
2018-07-22T04:28:51.546Z,1012.4
2018-07-22T04:29:17.115Z,1012.41
2018-07-22T04:29:42.695Z,1012.42
2018-07-22T04:30:08.270Z,1012.42
2018-07-22T04:30:33.840Z,1012.38
2018-07-22T04:30:59.425Z,1012.43
2018-07-22T04:31:25.004Z,1012.39
2018-07-22T04:31:50.583Z,1012.41
2018-07-22T04:32:16.157Z,1012.41
2018-07-22T04:32:41.735Z,1012.37
2018-07-22T04:33:07.327Z,1012.44
2018-07-22T04:33:32.899Z,1012.44
2018-07-22T04:33:58.478Z,1012.43
2018-07-22T04:34:24.048Z,1012.43
2018-07-22T04:34:49.630Z,1012.46
2018-07-22T04:35:15.215Z,1012.43
2018-07-22T04:35:40.785Z,1012.41
2018-07-22T04:36:06.368Z,1012.42
2018-07-22T04:36:31.936Z,1012.44
2018-07-22T04:36:57.504Z,1012.4
2018-07-22T04:37:23.070Z,1012.41
2018-07-22T04:37:48.650Z,1012.39
2018-07-22T04:38:14.232Z,1012.41
2018-07-22T04:38:39.807Z,1012.39
2018-07-22T04:39:05.386Z,1012.35
2018-07-22T04:39:30.970Z,1012.37
2018-07-22T04:39:56.546Z,1012.35
2018-07-22T04:40:22.122Z,1012.37
2018-07-22T04:40:47.715Z,1012.35
2018-07-22T04:41:13.279Z,1012.35
2018-07-22T04:41:38.850Z,1012.33
2018-07-22T04:42:04.425Z,1012.33
2018-07-22T04:42:30.002Z,1012.32
2018-07-22T04:42:55.572Z,1012.33
2018-07-22T04:43:21.146Z,1012.36
2018-07-22T04:43:46.712Z,1012.32
2018-07-22T04:44:12.289Z,1012.39
2018-07-22T04:44:37.859Z,1012.38
2018-07-22T04:45:03.426Z,1012.34
2018-07-22T04:45:29.002Z,1012.36
2018-07-22T04:45:54.572Z,1012.35
2018-07-22T04:46:20.138Z,1012.39
2018-07-22T04:46:45.726Z,1012.37
2018-07-22T04:47:11.294Z,1012.39
2018-07-22T04:47:36.916Z,1012.37
2018-07-22T04:48:02.443Z,1012.38
2018-07-22T04:48:28.013Z,1012.43
2018-07-22T04:48:53.616Z,1012.4
2018-07-22T04:49:19.188Z,1012.44
2018-07-22T04:49:44.752Z,1012.45
2018-07-22T04:50:10.334Z,1012.44
2018-07-22T04:50:35.915Z,1012.41
2018-07-22T04:51:01.484Z,1012.4
2018-07-22T04:51:27.044Z,1012.49
2018-07-22T04:51:52.630Z,1012.44
2018-07-22T04:52:18.206Z,1012.48
2018-07-22T04:52:43.780Z,1012.52
2018-07-22T04:53:09.359Z,1012.54
2018-07-22T04:53:34.952Z,1012.57
2018-07-22T04:54:00.508Z,1012.56
2018-07-22T04:54:26.080Z,1012.54
2018-07-22T04:54:51.648Z,1012.55
2018-07-22T04:55:17.222Z,1012.59
2018-07-22T04:55:42.814Z,1012.59
2018-07-22T04:56:08.390Z,1012.55
2018-07-22T04:56:33.970Z,1012.56
2018-07-22T04:56:59.533Z,1012.58
2018-07-22T04:57:25.118Z,1012.62
2018-07-22T04:57:50.702Z,1012.62
2018-07-22T04:58:16.270Z,1012.56
2018-07-22T04:58:41.842Z,1012.62
2018-07-22T04:59:07.424Z,1012.61
2018-07-22T04:59:32.994Z,1012.61
2018-07-22T04:59:58.570Z,1012.6
2018-07-22T05:00:24.138Z,1012.6
2018-07-22T05:00:49.712Z,1012.61
2018-07-22T05:01:15.288Z,1012.61
2018-07-22T05:01:40.850Z,1012.66
2018-07-22T05:02:06.428Z,1012.63
2018-07-22T05:02:32.000Z,1012.67
2018-07-22T05:02:57.584Z,1012.63
2018-07-22T05:03:23.174Z,1012.64
2018-07-22T05:03:48.729Z,1012.63
2018-07-22T05:04:14.322Z,1012.61
2018-07-22T05:04:39.898Z,1012.67
2018-07-22T05:05:05.472Z,1012.63
2018-07-22T05:05:31.034Z,1012.61
2018-07-22T05:05:56.630Z,1012.64
2018-07-22T05:06:22.200Z,1012.61
2018-07-22T05:06:47.768Z,1012.68
2018-07-22T05:07:13.348Z,1012.63
2018-07-22T05:07:38.908Z,1012.64
2018-07-22T05:08:04.477Z,1012.62
2018-07-22T05:08:30.060Z,1012.65
2018-07-22T05:08:55.623Z,1012.65
2018-07-22T05:09:21.194Z,1012.63
2018-07-22T05:09:46.769Z,1012.7
2018-07-22T05:10:12.335Z,1012.66